Time;durP1;ratioP1;P1;durP2;ratioP2;P2;SDS_P1;SDS_P2;PMS_P1;PMS_P2;Temp;Humidity;BMP_temperature;BMP_pressure;BME280_temperature;BME280_humidity;BME280_pressure;Samples;Min_cycle;Max_cycle;Signal;HPM_P1;HPM_P2
2023/05/30 00:01:39;;;;;;;5.85;4.30;;;12.70;99.90;;;;;;5012716;28;20089;-67
2023/05/30 00:04:05;;;;;;;9.68;4.18;;;12.70;99.90;;;;;;5012621;28;20068;-67
2023/05/30 00:06:31;;;;;;;7.68;3.58;;;12.60;99.90;;;;;;5012495;28;20026;-68
2023/05/30 00:08:57;;;;;;;6.25;4.03;;;12.60;1.00;;;;;;5012680;28;20164;-68
2023/05/30 00:11:24;;;;;;;9.57;4.10;;;12.70;99.90;;;;;;5012482;28;20050;-68
2023/05/30 00:13:50;;;;;;;6.65;4.30;;;12.70;99.90;;;;;;5012365;28;20029;-68
2023/05/30 00:16:19;;;;;;;8.57;3.90;;;12.70;99.90;;;;;;5012546;28;20022;-68
2023/05/30 00:18:48;;;;;;;5.30;3.47;;;12.80;99.90;;;;;;5011744;28;20025;-67
2023/05/30 00:21:14;;;;;;;12.77;4.97;;;12.70;99.90;;;;;;5012442;28;20033;-67
2023/05/30 00:23:40;;;;;;;7.45;4.75;;;12.60;1.00;;;;;;5012425;28;20030;-67
2023/05/30 00:26:08;;;;;;;9.38;4.00;;;12.60;1.00;;;;;;5012196;28;20026;-68
2023/05/30 00:28:36;;;;;;;7.22;4.35;;;12.50;1.00;;;;;;5011192;28;20053;-67
2023/05/30 00:31:02;;;;;;;7.43;3.67;;;12.50;1.00;;;;;;5011996;28;20022;-68
2023/05/30 00:33:28;;;;;;;4.22;3.70;;;12.30;1.00;;;;;;5012326;28;20400;-68
2023/05/30 00:35:53;;;;;;;4.60;3.60;;;12.30;1.00;;;;;;5012148;28;20404;-67
2023/05/30 00:38:20;;;;;;;4.53;3.65;;;12.30;1.00;;;;;;5012190;28;20049;-67
2023/05/30 00:40:45;;;;;;;7.28;4.78;;;12.30;1.00;;;;;;5012165;28;20392;-68
2023/05/30 00:43:11;;;;;;;7.78;3.85;;;12.30;1.00;;;;;;5012197;28;20026;-68
2023/05/30 00:45:37;;;;;;;7.47;4.28;;;12.40;1.00;;;;;;5012210;28;20621;-68
2023/05/30 00:48:05;;;;;;;9.27;3.60;;;12.40;1.00;;;;;;5010682;28;20116;-67
2023/05/30 00:50:33;;;;;;;5.65;4.00;;;12.40;1.00;;;;;;5012247;28;20381;-67
2023/05/30 00:52:59;;;;;;;9.38;3.90;;;12.20;1.00;;;;;;5012229;28;20081;-68
2023/05/30 00:55:27;;;;;;;8.82;4.30;;;12.30;1.00;;;;;;5012091;28;20022;-67
2023/05/30 00:57:53;;;;;;;5.68;4.18;;;12.20;1.00;;;;;;5012062;28;20485;-67
2023/05/30 01:00:24;;;;;;;10.45;3.83;;;12.20;1.00;;;;;;5010760;28;20512;-67
2023/05/30 01:02:51;;;;;;;7.50;3.85;;;12.10;1.00;;;;;;5011919;28;20361;-67
2023/05/30 01:05:17;;;;;;;4.57;4.03;;;12.00;1.00;;;;;;5012094;28;20030;-68
2023/05/30 01:07:44;;;;;;;8.60;4.68;;;12.00;1.00;;;;;;5011954;28;20037;-68
2023/05/30 01:10:17;;;;;;;7.18;4.28;;;12.00;1.00;;;;;;5011607;28;20417;-67
2023/05/30 01:12:52;;;;;;;9.20;4.90;;;12.00;1.00;;;;;;5012193;28;20084;-68
2023/05/30 01:15:26;;;;;;;8.50;4.82;;;12.00;1.00;;;;;;5011849;28;20030;-67
2023/05/30 01:18:01;;;;;;;13.60;4.68;;;11.90;1.00;;;;;;5011716;28;20022;-67
2023/05/30 01:20:30;;;;;;;6.80;4.70;;;11.80;1.00;;;;;;5011966;28;20080;-68
2023/05/30 01:23:02;;;;;;;6.05;4.65;;;11.80;1.00;;;;;;5011763;28;20034;-68
2023/05/30 01:25:59;;;;;;;11.52;4.72;;;11.80;1.00;;;;;;5011889;28;20080;-67
2023/05/30 01:28:29;;;;;;;6.95;4.82;;;11.80;1.00;;;;;;5011629;28;20026;-68
2023/05/30 01:30:56;;;;;;;7.90;5.15;;;11.70;1.00;;;;;;5014990;28;20026;-68
2023/05/30 01:33:25;;;;;;;15.18;5.63;;;11.80;1.00;;;;;;5014187;28;20030;-67
2023/05/30 01:35:51;;;;;;;7.63;4.88;;;11.80;1.00;;;;;;5015223;28;20076;-68
2023/05/30 01:38:17;;;;;;;7.93;4.90;;;11.70;1.00;;;;;;5015174;28;20432;-68
2023/05/30 01:40:52;;;;;;;6.93;4.43;;;11.70;1.00;;;;;;5015302;28;20053;-67
2023/05/30 01:43:39;;;;;;;6.90;4.63;;;11.70;1.00;;;;;;5015357;28;20552;-68
2023/05/30 01:46:27;;;;;;;8.35;4.40;;;11.60;1.00;;;;;;5015029;28;20068;-67
2023/05/30 01:48:59;;;;;;;5.15;4.40;;;11.50;1.00;;;;;;5014980;28;20364;-67
2023/05/30 01:51:34;;;;;;;10.18;4.47;;;11.50;1.00;;;;;;5014994;28;20076;-68
2023/05/30 01:54:04;;;;;;;9.20;5.30;;;11.40;1.00;;;;;;5015010;28;20025;-67
2023/05/30 01:56:31;;;;;;;8.13;4.40;;;11.30;9.00;;;;;;5015079;28;20026;-68
2023/05/30 01:58:57;;;;;;;9.80;4.53;;;11.30;18.90;;;;;;5014885;28;20523;-68
2023/05/30 02:01:26;;;;;;;8.93;5.35;;;11.40;14.90;;;;;;5014554;28;20491;-68
2023/05/30 02:07:15;;;;;;;6.78;5.03;;;11.40;18.50;;;;;;5014974;28;20372;-68
2023/05/30 02:09:41;;;;;;;6.00;4.40;;;11.40;13.80;;;;;;5014394;28;20135;-67
2023/05/30 02:12:08;;;;;;;7.93;5.05;;;11.40;15.50;;;;;;5014457;28;20044;-68
2023/05/30 02:14:33;;;;;;;9.55;5.10;;;11.30;16.50;;;;;;5014763;28;20026;-67
2023/05/30 02:16:59;;;;;;;9.02;5.85;;;11.20;22.00;;;;;;5014584;28;20026;-67
2023/05/30 02:19:25;;;;;;;9.65;5.25;;;11.20;31.40;;;;;;5014420;28;20033;-68
2023/05/30 02:21:51;;;;;;;11.30;5.85;;;11.20;40.00;;;;;;5014296;28;20034;-67
2023/05/30 02:24:16;;;;;;;12.60;5.65;;;11.30;34.40;;;;;;5014403;28;20028;-67
2023/05/30 02:26:42;;;;;;;6.93;5.43;;;11.20;34.20;;;;;;5013110;28;20054;-67
2023/05/30 02:29:07;;;;;;;10.93;5.82;;;11.20;38.60;;;;;;5014083;28;20104;-68
2023/05/30 02:31:33;;;;;;;8.93;5.57;;;11.20;40.20;;;;;;5014145;28;20030;-68
2023/05/30 02:34:00;;;;;;;7.45;6.28;;;11.10;45.90;;;;;;5014236;28;20022;-67
2023/05/30 02:36:25;;;;;;;15.82;5.82;;;11.00;53.20;;;;;;5014406;28;20099;-67
2023/05/30 02:38:51;;;;;;;8.82;5.60;;;11.10;55.70;;;;;;5013729;28;20041;-67
2023/05/30 02:41:17;;;;;;;9.75;5.35;;;11.10;45.00;;;;;;5013260;28;20017;-67
2023/05/30 02:43:43;;;;;;;6.68;5.32;;;11.10;41.90;;;;;;5014186;28;20060;-67
2023/05/30 02:46:09;;;;;;;7.85;5.47;;;11.10;43.40;;;;;;5014088;28;20050;-67
2023/05/30 02:48:34;;;;;;;7.20;5.50;;;11.10;44.90;;;;;;5013932;28;20178;-67
2023/05/30 02:51:00;;;;;;;11.55;6.03;;;11.10;50.00;;;;;;5013823;28;20100;-68
2023/05/30 02:53:26;;;;;;;10.15;6.65;;;11.10;48.90;;;;;;5013791;28;20404;-68
2023/05/30 02:55:51;;;;;;;9.10;5.97;;;11.10;47.50;;;;;;5013934;28;20029;-67
2023/05/30 02:58:17;;;;;;;15.57;7.25;;;11.20;48.00;;;;;;5013652;28;20419;-67
2023/05/30 03:00:43;;;;;;;11.60;6.80;;;11.20;47.10;;;;;;5013583;28;20446;-68
2023/05/30 03:03:09;;;;;;;13.43;6.13;;;11.20;50.20;;;;;;5013615;28;20030;-67
2023/05/30 03:05:35;;;;;;;9.57;7.10;;;11.20;51.10;;;;;;5013660;28;20026;-67
2023/05/30 03:08:02;;;;;;;8.02;7.22;;;11.20;48.00;;;;;;5013156;28;20049;-67
2023/05/30 03:10:28;;;;;;;13.02;6.47;;;11.20;54.50;;;;;;5013552;28;20038;-67
2023/05/30 03:12:54;;;;;;;10.50;6.10;;;11.20;49.40;;;;;;5013325;28;20512;-68
2023/05/30 03:15:23;;;;;;;9.38;5.45;;;11.20;44.90;;;;;;5013579;28;20072;-68
2023/05/30 03:17:49;;;;;;;8.57;6.07;;;11.10;42.50;;;;;;5013381;28;20036;-68
2023/05/30 03:20:16;;;;;;;8.38;6.32;;;11.10;53.10;;;;;;5011971;28;20116;-67
2023/05/30 03:22:41;;;;;;;12.30;6.78;;;11.00;53.80;;;;;;5013216;28;20021;-68
2023/05/30 03:25:08;;;;;;;14.45;6.50;;;11.00;59.90;;;;;;5013181;28;20029;-67
2023/05/30 03:27:34;;;;;;;10.07;5.80;;;11.10;58.20;;;;;;5013145;28;20137;-67
2023/05/30 03:30:02;;;;;;;10.00;7.10;;;11.10;55.80;;;;;;5012949;28;20030;-67
2023/05/30 03:32:27;;;;;;;13.35;6.68;;;11.10;57.60;;;;;;5013137;28;20080;-67
2023/05/30 03:34:53;;;;;;;8.77;7.00;;;11.00;58.20;;;;;;5012588;28;20018;-67
2023/05/30 03:37:19;;;;;;;10.73;6.60;;;11.00;63.00;;;;;;5012970;28;20054;-67
2023/05/30 03:39:44;;;;;;;14.52;6.97;;;11.00;63.00;;;;;;5012737;28;20456;-67
2023/05/30 03:42:10;;;;;;;20.98;7.13;;;11.10;63.20;;;;;;5012984;28;20026;-68
2023/05/30 03:44:36;;;;;;;14.48;6.93;;;11.10;62.70;;;;;;4998544;28;20034;-68
2023/05/30 03:47:01;;;;;;;11.40;5.97;;;11.20;64.50;;;;;;4993077;28;20022;-67
2023/05/30 03:49:27;;;;;;;8.98;6.47;;;11.30;58.40;;;;;;4993002;28;20448;-67
2023/05/30 03:51:53;;;;;;;15.77;8.07;;;11.30;52.60;;;;;;4992717;28;20461;-68
2023/05/30 03:54:18;;;;;;;8.85;5.93;;;11.20;55.40;;;;;;5003979;28;20026;-67
2023/05/30 03:56:44;;;;;;;9.23;6.43;;;11.20;63.70;;;;;;5012575;28;20050;-68
2023/05/30 03:59:10;;;;;;;10.55;6.28;;;11.30;66.00;;;;;;5012650;28;20453;-66
2023/05/30 04:01:36;;;;;;;13.65;6.70;;;11.40;66.60;;;;;;5012546;28;20030;-66
2023/05/30 04:04:01;;;;;;;15.05;7.53;;;11.40;63.70;;;;;;5012300;28;20425;-68
2023/05/30 04:06:27;;;;;;;8.98;6.70;;;11.50;60.80;;;;;;5011220;28;20062;-67
2023/05/30 04:08:53;;;;;;;9.63;7.22;;;11.50;55.20;;;;;;5012394;28;20108;-67
2023/05/30 04:11:18;;;;;;;12.63;7.22;;;11.50;57.70;;;;;;5011883;28;20066;-67
2023/05/30 04:13:44;;;;;;;12.73;6.38;;;11.60;53.80;;;;;;5012270;28;20061;-67
2023/05/30 04:16:10;;;;;;;17.15;9.20;;;11.70;53.60;;;;;;5012146;28;20033;-67
2023/05/30 04:18:40;;;;;;;12.77;6.82;;;11.70;57.60;;;;;;5012140;28;20022;-68
2023/05/30 04:21:07;;;;;;;13.25;6.60;;;11.90;59.40;;;;;;5012267;28;20651;-67
2023/05/30 04:23:33;;;;;;;10.27;6.38;;;12.00;49.40;;;;;;5010606;28;20026;-67
2023/05/30 04:25:58;;;;;;;9.43;6.75;;;12.10;48.10;;;;;;5011972;28;20371;-67
2023/05/30 04:28:24;;;;;;;14.20;7.00;;;12.10;53.40;;;;;;5012234;28;20022;-67
2023/05/30 04:30:50;;;;;;;9.57;6.40;;;12.20;36.70;;;;;;5011898;28;20038;-67
2023/05/30 04:33:16;;;;;;;8.18;6.22;;;12.40;29.90;;;;;;5011923;28;20038;-68
2023/05/30 04:35:43;;;;;;;13.40;6.65;;;12.60;21.50;;;;;;5012216;28;20365;-67
2023/05/30 04:38:09;;;;;;;11.48;6.22;;;12.60;11.60;;;;;;5011870;28;20022;-69
2023/05/30 04:40:36;;;;;;;9.63;6.55;;;12.50;23.20;;;;;;5012003;28;20473;-68
2023/05/30 04:43:02;;;;;;;10.23;6.70;;;12.50;18.80;;;;;;5011799;28;20033;-68
2023/05/30 04:45:29;;;;;;;10.45;6.40;;;12.50;27.40;;;;;;5012167;28;20034;-68
2023/05/30 04:47:56;;;;;;;8.80;6.68;;;12.50;22.90;;;;;;5011710;28;20410;-69
2023/05/30 04:50:24;;;;;;;11.35;6.72;;;12.60;15.40;;;;;;5011826;28;20065;-69
2023/05/30 04:52:49;;;;;;;10.30;6.13;;;12.70;5.00;;;;;;5010438;28;20030;-69
2023/05/30 04:55:17;;;;;;;10.35;6.55;;;12.70;3.20;;;;;;5011906;28;20461;-70
2023/05/30 04:57:42;;;;;;;7.68;5.63;;;12.80;1.70;;;;;;5011952;28;20025;-67
2023/05/30 05:00:15;;;;;;;10.45;6.53;;;13.10;1.00;;;;;;5011400;28;20092;-67
2023/05/30 05:02:42;;;;;;;10.50;5.57;;;13.30;1.00;;;;;;5011873;28;20037;-68
2023/05/30 05:05:08;;;;;;;11.52;6.22;;;13.40;1.00;;;;;;5013963;28;20022;-66
2023/05/30 05:07:34;;;;;;;11.50;7.38;;;13.70;1.00;;;;;;5015485;28;20080;-69
2023/05/30 05:10:00;;;;;;;11.23;6.50;;;13.70;1.00;;;;;;5014390;28;20056;-68
2023/05/30 05:12:26;;;;;;;9.85;6.75;;;13.70;1.00;;;;;;5014624;28;20049;-68
2023/05/30 05:14:54;;;;;;;9.00;6.30;;;13.80;1.00;;;;;;5015070;28;20022;-69
2023/05/30 05:17:20;;;;;;;12.63;6.75;;;13.90;1.00;;;;;;5015370;28;20054;-69
2023/05/30 05:19:46;;;;;;;6.57;5.82;;;13.80;1.00;;;;;;5015195;28;20531;-69
2023/05/30 05:22:12;;;;;;;7.85;6.15;;;13.90;1.00;;;;;;5015237;28;20117;-68
2023/05/30 05:24:37;;;;;;;11.35;6.43;;;13.80;1.00;;;;;;5015351;28;20025;-68
2023/05/30 05:27:03;;;;;;;9.02;6.50;;;13.90;1.00;;;;;;5014962;28;20034;-68
2023/05/30 05:29:29;;;;;;;12.70;6.40;;;14.10;1.00;;;;;;5014144;28;20448;-69
2023/05/30 05:31:54;;;;;;;18.48;5.50;;;14.30;1.00;;;;;;5014327;28;20512;-68
2023/05/30 05:34:20;;;;;;;11.00;4.82;;;14.50;1.00;;;;;;5014973;28;20022;-68
2023/05/30 05:36:46;;;;;;;11.50;4.50;;;14.80;99.90;;;;;;5014364;28;20033;-68
2023/05/30 05:39:12;;;;;;;15.15;9.32;;;15.10;99.90;;;;;;5014759;28;20075;-69
2023/05/30 05:41:37;;;;;;;13.30;5.25;;;15.30;99.90;;;;;;5014566;28;20045;-71
2023/05/30 05:44:03;;;;;;;7.97;4.53;;;15.50;1.00;;;;;;5014288;28;20100;-68
2023/05/30 05:46:28;;;;;;;11.63;4.85;;;15.70;35.50;;;;;;5014138;28;20476;-69
2023/05/30 05:48:54;;;;;;;15.63;5.28;;;15.90;84.10;;;;;;5014763;28;20029;-70
2023/05/30 05:51:21;;;;;;;10.25;4.13;;;16.00;1.00;;;;;;5014528;28;20358;-69
2023/05/30 05:53:46;;;;;;;9.98;4.90;;;16.20;99.90;;;;;;5014421;28;20030;-69
2023/05/30 05:56:12;;;;;;;7.68;4.57;;;16.20;1.00;;;;;;5014633;28;20030;-69
2023/05/30 05:58:38;;;;;;;11.38;4.75;;;16.40;1.00;;;;;;5014522;28;20445;-70
2023/05/30 06:01:04;;;;;;;7.57;4.53;;;16.50;65.40;;;;;;5014307;28;20030;-70
2023/05/30 06:03:30;;;;;;;9.02;4.50;;;16.60;99.90;;;;;;5014547;28;20022;-70
2023/05/30 06:05:56;;;;;;;13.75;5.00;;;16.50;2.50;;;;;;5014075;28;20030;-69
2023/05/30 06:08:21;;;;;;;16.05;3.97;;;16.60;99.90;;;;;;5014504;28;20029;-70
2023/05/30 06:10:47;;;;;;;8.15;4.78;;;16.60;56.00;;;;;;5013975;28;20476;-69
2023/05/30 06:13:13;;;;;;;12.68;5.28;;;16.70;1.00;;;;;;5014090;28;20025;-70
2023/05/30 06:15:39;;;;;;;13.45;4.88;;;16.70;99.90;;;;;;5012807;28;20041;-69
2023/05/30 06:18:05;;;;;;;6.03;4.22;;;16.70;1.00;;;;;;5013970;28;20784;-70
2023/05/30 06:20:30;;;;;;;6.68;4.55;;;16.80;1.00;;;;;;5014067;28;20030;-70
2023/05/30 06:22:56;;;;;;;12.05;4.60;;;16.70;99.90;;;;;;5013467;28;20037;-69
2023/05/30 06:25:22;;;;;;;12.02;4.97;;;16.80;99.90;;;;;;5013937;28;20358;-69
2023/05/30 06:27:47;;;;;;;7.68;4.82;;;16.90;1.00;;;;;;5013682;28;20036;-70
2023/05/30 06:30:13;;;;;;;8.75;5.30;;;16.90;8.40;;;;;;5013988;28;20036;-69
2023/05/30 06:32:39;;;;;;;12.00;4.93;;;17.00;96.90;;;;;;5013870;28;20575;-69
2023/05/30 06:35:05;;;;;;;8.55;5.28;;;17.00;99.90;;;;;;5013730;28;20029;-70
2023/05/30 06:37:30;;;;;;;14.57;5.30;;;16.90;1.00;;;;;;5013603;28;20038;-69
2023/05/30 06:39:56;;;;;;;7.97;5.15;;;17.00;1.00;;;;;;5013713;28;20026;-69
2023/05/30 06:42:22;;;;;;;6.40;4.72;;;16.90;99.90;;;;;;5013537;28;20033;-69
2023/05/30 06:44:50;;;;;;;11.38;4.88;;;17.00;99.90;;;;;;5013777;28;20030;-69
2023/05/30 06:47:16;;;;;;;12.45;5.03;;;17.10;43.90;;;;;;5013473;28;20034;-69
2023/05/30 06:49:42;;;;;;;13.35;5.22;;;17.00;99.90;;;;;;5013349;28;20040;-69
2023/05/30 06:52:07;;;;;;;16.73;5.18;;;17.10;99.90;;;;;;5013456;28;20559;-70
2023/05/30 06:54:33;;;;;;;7.70;5.05;;;17.20;99.90;;;;;;5013579;28;20026;-70
2023/05/30 06:57:02;;;;;;;7.03;5.10;;;17.40;1.00;;;;;;5011826;28;20640;-67
2023/05/30 06:59:28;;;;;;;9.48;5.68;;;17.40;99.90;;;;;;5013344;28;20022;-67
2023/05/30 07:01:54;;;;;;;13.80;5.18;;;17.30;99.90;;;;;;5013078;28;20037;-68
2023/05/30 07:04:23;;;;;;;10.98;5.70;;;17.40;99.90;;;;;;5013461;28;20022;-68
2023/05/30 07:06:49;;;;;;;11.95;5.28;;;17.50;99.90;;;;;;5013201;28;20025;-67
2023/05/30 07:09:15;;;;;;;11.13;5.82;;;17.60;1.00;;;;;;5011282;28;20552;-68
2023/05/30 07:11:40;;;;;;;8.77;5.00;;;17.60;1.00;;;;;;4993448;28;20117;-68
2023/05/30 07:14:06;;;;;;;15.13;5.45;;;17.70;71.70;;;;;;4993332;28;20088;-68
2023/05/30 07:16:32;;;;;;;11.23;6.22;;;17.70;1.00;;;;;;4992173;28;20027;-68
2023/05/30 07:18:58;;;;;;;11.18;5.22;;;17.90;16.00;;;;;;4995065;28;20034;-68
2023/05/30 07:21:23;;;;;;;12.55;5.57;;;17.90;74.80;;;;;;5011808;28;20116;-68
2023/05/30 07:23:49;;;;;;;13.20;4.82;;;17.90;25.80;;;;;;5012901;28;20041;-68
2023/05/30 07:26:15;;;;;;;14.98;4.97;;;18.00;1.00;;;;;;5012907;28;20022;-69
2023/05/30 07:28:41;;;;;;;11.57;5.95;;;18.10;1.00;;;;;;5012438;28;20109;-68
2023/05/30 07:31:06;;;;;;;11.73;5.15;;;18.20;1.00;;;;;;5012694;28;20048;-68
2023/05/30 07:33:32;;;;;;;14.27;5.90;;;18.10;99.90;;;;;;5012791;28;20033;-68
2023/05/30 07:35:58;;;;;;;20.25;6.03;;;18.00;99.90;;;;;;5012725;28;20080;-68
2023/05/30 07:38:23;;;;;;;11.18;4.88;;;18.20;99.90;;;;;;5012840;28;20057;-68
2023/05/30 07:40:49;;;;;;;11.25;5.63;;;18.50;1.00;;;;;;5011203;28;20408;-68
2023/05/30 07:43:15;;;;;;;11.48;5.93;;;18.80;99.90;;;;;;5012717;28;20033;-67
2023/05/30 07:45:40;;;;;;;20.00;5.25;;;18.70;99.90;;;;;;5012744;28;20034;-68
2023/05/30 07:48:06;;;;;;;10.70;5.20;;;18.90;99.90;;;;;;5012663;28;20496;-68
2023/05/30 07:50:32;;;;;;;6.78;4.78;;;18.90;99.90;;;;;;5011223;28;20038;-68
2023/05/30 07:52:58;;;;;;;11.50;5.72;;;19.00;99.90;;;;;;5012259;28;20033;-68
2023/05/30 07:55:26;;;;;;;7.00;5.53;;;19.10;1.00;;;;;;5012514;28;20113;-68
2023/05/30 07:57:51;;;;;;;13.18;4.82;;;19.10;63.30;;;;;;5012371;28;20049;-68
2023/05/30 08:00:17;;;;;;;5.93;4.63;;;19.20;82.20;;;;;;5010953;28;20547;-68
2023/05/30 08:02:43;;;;;;;9.18;4.78;;;19.30;1.00;;;;;;5011123;28;20033;-68
2023/05/30 08:05:08;;;;;;;10.38;5.40;;;19.30;99.90;;;;;;5012243;28;20030;-68
2023/05/30 08:07:34;;;;;;;11.50;4.63;;;19.20;1.00;;;;;;5012206;28;20037;-68
2023/05/30 08:10:00;;;;;;;8.75;4.22;;;19.30;1.00;;;;;;5010647;28;20042;-67
2023/05/30 08:12:34;;;;;;;10.40;5.75;;;19.40;99.90;;;;;;5012047;28;20038;-68
2023/05/30 08:15:00;;;;;;;11.85;4.40;;;19.40;99.90;;;;;;5012218;28;20037;-68
2023/05/30 08:17:29;;;;;;;13.95;4.70;;;19.40;99.90;;;;;;5012281;28;20021;-68
2023/05/30 08:19:55;;;;;;;13.25;5.00;;;19.30;99.90;;;;;;5012034;28;20061;-68
2023/05/30 08:22:23;;;;;;;10.93;4.85;;;19.40;99.90;;;;;;5011809;28;20029;-68
2023/05/30 08:24:54;;;;;;;11.07;5.20;;;19.50;99.90;;;;;;5011954;28;20035;-68
2023/05/30 08:27:21;;;;;;;8.07;4.55;;;19.70;99.90;;;;;;5012167;28;20030;-68
2023/05/30 08:29:49;;;;;;;8.57;5.30;;;19.70;99.90;;;;;;5011842;28;20029;-68
2023/05/30 08:32:16;;;;;;;14.90;5.32;;;19.60;99.90;;;;;;5011741;28;20409;-68
2023/05/30 08:34:42;;;;;;;11.38;4.82;;;19.70;99.90;;;;;;5012037;28;20057;-68
2023/05/30 08:37:07;;;;;;;14.95;5.47;;;19.90;99.90;;;;;;5011613;28;20038;-68
2023/05/30 08:39:33;;;;;;;8.23;4.93;;;20.10;99.90;;;;;;5009849;28;20022;-68
2023/05/30 08:42:00;;;;;;;11.10;5.90;;;20.20;99.90;;;;;;5011703;28;20061;-68
2023/05/30 08:44:29;;;;;;;10.70;5.50;;;20.30;99.90;;;;;;5011860;28;20380;-68
2023/05/30 08:46:59;;;;;;;9.52;5.10;;;20.30;99.90;;;;;;5011730;28;20334;-68
2023/05/30 08:49:27;;;;;;;9.20;5.60;;;20.50;99.90;;;;;;5011637;28;20034;-68
2023/05/30 08:51:54;;;;;;;8.60;5.65;;;20.50;99.90;;;;;;5011635;28;20041;-68
2023/05/30 08:54:28;;;;;;;8.57;5.50;;;20.60;60.50;;;;;;5011496;28;20022;-68
2023/05/30 08:57:18;;;;;;;9.35;5.00;;;20.70;60.30;;;;;;5011518;28;20361;-68
2023/05/30 08:59:44;;;;;;;10.93;5.25;;;20.90;95.70;;;;;;5011737;28;20049;-68
2023/05/30 09:02:12;;;;;;;9.45;5.20;;;21.10;99.90;;;;;;5011576;28;20042;-68
2023/05/30 09:04:38;;;;;;;8.93;5.55;;;20.90;75.90;;;;;;5010278;28;20481;-68
2023/05/30 09:07:05;;;;;;;6.65;5.30;;;20.80;24.50;;;;;;5011611;28;20361;-69
2023/05/30 09:09:33;;;;;;;10.63;4.95;;;21.00;64.10;;;;;;5011518;28;20018;-69
2023/05/30 09:11:58;;;;;;;10.93;5.22;;;21.30;90.30;;;;;;5011457;28;20038;-68
2023/05/30 09:14:24;;;;;;;14.63;4.70;;;21.40;89.70;;;;;;5011643;28;20028;-68
2023/05/30 09:16:50;;;;;;;11.77;5.03;;;21.50;12.00;;;;;;5011550;28;20385;-69
2023/05/30 09:19:16;;;;;;;12.93;4.75;;;21.80;50.90;;;;;;5011619;28;20038;-69
2023/05/30 09:21:42;;;;;;;7.72;5.28;;;21.90;1.00;;;;;;5011537;28;20024;-68
2023/05/30 09:24:08;;;;;;;7.82;4.38;;;21.90;1.00;;;;;;5011278;28;20018;-68
2023/05/30 09:26:33;;;;;;;11.95;4.82;;;22.20;1.00;;;;;;5011580;28;20022;-68
2023/05/30 09:29:11;;;;;;;8.55;4.68;;;22.20;1.00;;;;;;5010893;28;20105;-68
2023/05/30 09:31:37;;;;;;;8.52;4.57;;;22.30;1.00;;;;;;5004397;28;20025;-69
2023/05/30 09:34:04;;;;;;;6.88;4.57;;;22.50;1.00;;;;;;5010638;28;20026;-69
2023/05/30 09:36:31;;;;;;;7.88;4.25;;;22.30;1.00;;;;;;5011187;28;20384;-69
2023/05/30 09:38:58;;;;;;;10.35;4.28;;;22.70;1.00;;;;;;5011294;28;20024;-71
2023/05/30 09:41:26;;;;;;;12.48;4.80;;;22.80;1.00;;;;;;5011444;28;20076;-68
2023/05/30 09:43:53;;;;;;;14.05;3.63;;;22.80;1.00;;;;;;5010249;28;20033;-67
2023/05/30 09:46:21;;;;;;;10.68;4.57;;;22.80;1.00;;;;;;5011346;28;20084;-68
2023/05/30 09:48:47;;;;;;;10.77;3.95;;;22.80;1.00;;;;;;5011171;28;20033;-68
2023/05/30 09:51:15;;;;;;;13.25;3.95;;;22.70;1.00;;;;;;5011519;28;20026;-68
2023/05/30 09:53:54;;;;;;;12.38;3.50;;;22.90;1.00;;;;;;5005458;28;20031;-69
2023/05/30 09:56:20;;;;;;;6.50;3.30;;;23.10;1.00;;;;;;4994988;28;20031;-68
2023/05/30 09:58:45;;;;;;;8.65;3.88;;;23.10;1.00;;;;;;4995152;28;20124;-69
2023/05/30 10:01:17;;;;;;;14.73;3.55;;;23.40;1.00;;;;;;4995041;28;20076;-69
2023/05/30 10:03:44;;;;;;;10.07;4.13;;;23.60;1.00;;;;;;5004275;28;20105;-68
2023/05/30 10:06:14;;;;;;;6.05;3.53;;;23.70;1.00;;;;;;5014438;28;20121;-69
2023/05/30 10:08:45;;;;;;;8.85;4.43;;;23.90;1.00;;;;;;5014395;28;20025;-68
2023/05/30 10:11:12;;;;;;;7.97;4.47;;;24.00;1.00;;;;;;5014280;28;20550;-69
2023/05/30 10:13:39;;;;;;;7.00;3.67;;;24.00;1.00;;;;;;5014201;28;20378;-69
2023/05/30 10:16:14;;;;;;;5.40;3.45;;;24.10;1.00;;;;;;5014551;28;20640;-69
2023/05/30 10:18:53;;;;;;;6.25;3.47;;;23.90;99.90;;;;;;5014361;28;20096;-68
2023/05/30 10:21:25;;;;;;;8.85;3.53;;;24.10;1.00;;;;;;5014304;28;20026;-69
2023/05/30 10:23:53;;;;;;;9.17;3.50;;;24.50;99.90;;;;;;5013949;28;20034;-68
2023/05/30 10:26:23;;;;;;;6.63;3.47;;;24.60;99.90;;;;;;5014199;28;20265;-68
2023/05/30 10:28:50;;;;;;;9.48;4.00;;;24.70;99.90;;;;;;5013917;28;20071;-69
2023/05/30 10:31:16;;;;;;;9.73;3.83;;;24.80;99.90;;;;;;5014096;28;20018;-69
2023/05/30 10:33:46;;;;;;;8.40;3.60;;;24.50;99.90;;;;;;5013927;28;20029;-69
2023/05/30 10:36:12;;;;;;;8.43;3.38;;;24.80;99.90;;;;;;5013690;28;20022;-69
2023/05/30 10:38:56;;;;;;;9.75;3.65;;;24.90;99.90;;;;;;5013953;28;20026;-69
2023/05/30 10:41:35;;;;;;;10.88;3.55;;;25.00;99.90;;;;;;5013994;28;20018;-69
2023/05/30 10:44:46;;;;;;;8.82;4.30;;;25.00;99.90;;;;;;5013744;28;20034;-69
2023/05/30 10:47:32;;;;;;;7.38;2.80;;;25.30;99.90;;;;;;5012377;28;20053;-69
2023/05/30 10:50:03;;;;;;;10.30;3.45;;;25.10;99.90;;;;;;5013662;28;20085;-69
2023/05/30 10:52:32;;;;;;;4.97;3.20;;;25.20;99.90;;;;;;5013611;28;20567;-69
2023/05/30 10:54:58;;;;;;;13.30;3.28;;;25.40;99.90;;;;;;5013516;28;20049;-69
2023/05/30 10:57:30;;;;;;;5.47;3.35;;;25.20;99.90;;;;;;5013453;28;20085;-69
2023/05/30 11:00:04;;;;;;;7.38;3.50;;;25.50;99.90;;;;;;5013448;28;20014;-69
2023/05/30 11:02:37;;;;;;;9.15;3.63;;;25.30;99.90;;;;;;5012788;28;20037;-69
2023/05/30 11:05:08;;;;;;;4.78;3.15;;;25.80;99.90;;;;;;5013059;28;20069;-69
2023/05/30 11:07:36;;;;;;;15.75;7.70;;;25.90;99.90;;;;;;5013423;28;20026;-69
2023/05/30 11:10:07;;;;;;;10.02;4.15;;;26.00;99.90;;;;;;5012875;28;20080;-68
2023/05/30 11:12:38;;;;;;;5.15;3.15;;;25.90;99.90;;;;;;5013278;28;20092;-68
2023/05/30 11:15:05;;;;;;;6.50;3.22;;;25.80;99.90;;;;;;5013141;28;20025;-69
2023/05/30 11:17:33;;;;;;;7.22;4.00;;;25.90;99.90;;;;;;5013017;28;20030;-68
2023/05/30 11:20:16;;;;;;;15.25;4.47;;;26.20;99.90;;;;;;5012984;28;20026;-68
2023/05/30 11:23:02;;;;;;;10.20;3.20;;;26.30;99.90;;;;;;4993547;28;20022;-69
2023/05/30 11:25:32;;;;;;;7.90;3.65;;;26.20;99.90;;;;;;4982920;28;20043;-69
2023/05/30 11:28:03;;;;;;;12.30;4.32;;;26.10;99.90;;;;;;5006763;28;20476;-68
2023/05/30 11:30:40;;;;;;;5.80;3.05;;;26.20;99.90;;;;;;5012956;28;20037;-69
2023/05/30 11:33:12;;;;;;;13.23;3.60;;;26.30;99.90;;;;;;5012744;28;20029;-69
2023/05/30 11:35:38;;;;;;;5.22;3.20;;;26.40;99.90;;;;;;5012766;28;20109;-69
2023/05/30 11:38:06;;;;;;;6.95;2.90;;;26.80;99.90;;;;;;5012532;28;20029;-68
2023/05/30 11:40:32;;;;;;;10.75;3.42;;;26.80;99.90;;;;;;5012633;28;20084;-69
2023/05/30 11:42:58;;;;;;;13.80;4.93;;;27.20;99.90;;;;;;5012729;28;20025;-69
2023/05/30 11:45:28;;;;;;;12.85;4.90;;;27.00;99.90;;;;;;5012764;28;20017;-68
2023/05/30 11:48:03;;;;;;;8.98;4.65;;;27.00;99.90;;;;;;5012303;28;20133;-69
2023/05/30 11:50:29;;;;;;;17.85;5.22;;;27.30;99.90;;;;;;5012522;28;20026;-69
2023/05/30 11:52:56;;;;;;;13.63;4.57;;;27.20;99.90;;;;;;5012227;28;20041;-69
2023/05/30 11:55:22;;;;;;;8.02;3.20;;;27.10;99.90;;;;;;5011085;28;20014;-69
2023/05/30 11:57:48;;;;;;;13.15;3.35;;;27.30;99.90;;;;;;5011983;28;20061;-69
2023/05/30 12:00:14;;;;;;;9.32;3.72;;;27.40;99.90;;;;;;5012406;28;20425;-69
2023/05/30 12:02:41;;;;;;;8.38;3.78;;;27.70;99.90;;;;;;5012190;28;20030;-69
2023/05/30 12:05:08;;;;;;;7.97;3.78;;;27.50;99.90;;;;;;5012096;28;20361;-69
2023/05/30 12:07:33;;;;;;;4.43;2.55;;;27.40;99.90;;;;;;5012152;28;20041;-69
2023/05/30 12:09:59;;;;;;;5.07;3.13;;;27.70;99.90;;;;;;5011928;28;20050;-70
2023/05/30 12:12:26;;;;;;;9.05;3.30;;;28.40;99.90;;;;;;5012316;28;20034;-70
2023/05/30 12:14:53;;;;;;;15.50;3.20;;;28.50;99.90;;;;;;5012150;28;20040;-70
2023/05/30 12:17:21;;;;;;;5.22;3.08;;;29.40;99.90;;;;;;5012047;28;20041;-70
2023/05/30 12:19:59;;;;;;;12.50;3.80;;;30.30;99.90;;;;;;5011961;28;20033;-70
2023/05/30 12:22:27;;;;;;;10.27;3.10;;;30.80;99.90;;;;;;5012287;28;20041;-70
2023/05/30 12:24:53;;;;;;;11.90;3.20;;;30.50;99.90;;;;;;5011950;28;20057;-71
2023/05/30 12:27:23;;;;;;;9.30;3.55;;;31.00;99.90;;;;;;5012129;28;20026;-70
2023/05/30 12:29:49;;;;;;;10.23;3.25;;;30.90;99.90;;;;;;5010613;28;20028;-70
2023/05/30 12:32:22;;;;;;;10.13;3.63;;;31.10;99.90;;;;;;5011928;28;20030;-70
2023/05/30 12:34:48;;;;;;;7.18;3.10;;;31.70;99.90;;;;;;5011934;28;20029;-70
2023/05/30 12:37:16;;;;;;;7.82;3.28;;;31.80;99.90;;;;;;5006033;28;20096;-71
2023/05/30 12:39:46;;;;;;;12.88;3.17;;;31.60;99.90;;;;;;5012107;28;20457;-71
2023/05/30 12:42:12;;;;;;;11.00;3.28;;;31.80;99.90;;;;;;5000888;28;20092;-71
2023/05/30 12:44:48;;;;;;;18.85;3.38;;;31.90;99.90;;;;;;4992252;28;20022;-69
2023/05/30 12:47:15;;;;;;;9.23;3.35;;;32.00;99.90;;;;;;4997922;28;20033;-69
2023/05/30 12:49:41;;;;;;;8.02;3.25;;;32.20;99.90;;;;;;5012030;28;20108;-69
2023/05/30 12:52:08;;;;;;;11.00;2.92;;;32.50;99.90;;;;;;5011105;28;20117;-68